sensor_id;sensor_type;location;lat;lon;timestamp;P1;durP1;ratioP1;P2;durP2;ratioP2
21018;SDS011;10667;51.056;3.732;2023-04-03T00:00:22;11.88;;;7.78;;
21018;SDS011;10667;51.056;3.732;2023-04-03T00:02:48;10.55;;;7.82;;
21018;SDS011;10667;51.056;3.732;2023-04-03T00:05:13;12.10;;;8.40;;
21018;SDS011;10667;51.056;3.732;2023-04-03T00:07:39;9.50;;;7.05;;
21018;SDS011;10667;51.056;3.732;2023-04-03T00:10:05;9.73;;;7.35;;
21018;SDS011;10667;51.056;3.732;2023-04-03T00:12:31;10.93;;;7.65;;
21018;SDS011;10667;51.056;3.732;2023-04-03T00:14:57;11.95;;;7.90;;
21018;SDS011;10667;51.056;3.732;2023-04-03T00:17:22;10.77;;;7.40;;
21018;SDS011;10667;51.056;3.732;2023-04-03T00:19:48;10.70;;;7.20;;
21018;SDS011;10667;51.056;3.732;2023-04-03T00:22:14;11.18;;;7.00;;
21018;SDS011;10667;51.056;3.732;2023-04-03T00:24:39;8.82;;;7.03;;
21018;SDS011;10667;51.056;3.732;2023-04-03T00:27:05;9.10;;;6.88;;
21018;SDS011;10667;51.056;3.732;2023-04-03T00:29:31;8.52;;;6.30;;
21018;SDS011;10667;51.056;3.732;2023-04-03T00:31:56;11.88;;;6.95;;
21018;SDS011;10667;51.056;3.732;2023-04-03T00:34:22;12.43;;;6.88;;
21018;SDS011;10667;51.056;3.732;2023-04-03T00:36:48;10.07;;;6.68;;
21018;SDS011;10667;51.056;3.732;2023-04-03T00:39:13;9.30;;;6.47;;
21018;SDS011;10667;51.056;3.732;2023-04-03T00:41:39;9.20;;;6.70;;
21018;SDS011;10667;51.056;3.732;2023-04-03T00:44:18;10.02;;;6.25;;
21018;SDS011;10667;51.056;3.732;2023-04-03T00:46:45;9.88;;;6.93;;
21018;SDS011;10667;51.056;3.732;2023-04-03T00:49:11;9.82;;;6.70;;
21018;SDS011;10667;51.056;3.732;2023-04-03T00:51:36;10.68;;;7.75;;
21018;SDS011;10667;51.056;3.732;2023-04-03T00:54:03;8.95;;;6.40;;
21018;SDS011;10667;51.056;3.732;2023-04-03T00:56:31;10.00;;;7.28;;
21018;SDS011;10667;51.056;3.732;2023-04-03T00:59:02;11.38;;;6.57;;
21018;SDS011;10667;51.056;3.732;2023-04-03T01:01:33;10.15;;;7.75;;
21018;SDS011;10667;51.056;3.732;2023-04-03T01:04:00;9.20;;;7.07;;
21018;SDS011;10667;51.056;3.732;2023-04-03T01:06:28;10.43;;;7.05;;
21018;SDS011;10667;51.056;3.732;2023-04-03T01:08:57;9.05;;;7.00;;
21018;SDS011;10667;51.056;3.732;2023-04-03T01:11:24;11.80;;;6.88;;
21018;SDS011;10667;51.056;3.732;2023-04-03T01:13:51;8.13;;;6.82;;
21018;SDS011;10667;51.056;3.732;2023-04-03T01:16:17;9.85;;;6.65;;
21018;SDS011;10667;51.056;3.732;2023-04-03T01:18:43;9.80;;;7.20;;
21018;SDS011;10667;51.056;3.732;2023-04-03T01:24:10;8.75;;;7.68;;
21018;SDS011;10667;51.056;3.732;2023-04-03T01:26:47;9.63;;;6.97;;
21018;SDS011;10667;51.056;3.732;2023-04-03T01:29:13;15.85;;;7.65;;
21018;SDS011;10667;51.056;3.732;2023-04-03T01:34:14;11.27;;;7.25;;
21018;SDS011;10667;51.056;3.732;2023-04-03T01:36:40;14.93;;;7.22;;
21018;SDS011;10667;51.056;3.732;2023-04-03T01:39:06;9.80;;;7.40;;
21018;SDS011;10667;51.056;3.732;2023-04-03T01:41:32;12.38;;;7.20;;
21018;SDS011;10667;51.056;3.732;2023-04-03T01:43:58;9.07;;;6.93;;
21018;SDS011;10667;51.056;3.732;2023-04-03T01:46:24;11.82;;;7.45;;
21018;SDS011;10667;51.056;3.732;2023-04-03T01:48:50;11.07;;;7.20;;
21018;SDS011;10667;51.056;3.732;2023-04-03T01:51:15;9.45;;;6.97;;
21018;SDS011;10667;51.056;3.732;2023-04-03T01:53:41;11.55;;;7.00;;
21018;SDS011;10667;51.056;3.732;2023-04-03T01:56:07;11.15;;;7.50;;
21018;SDS011;10667;51.056;3.732;2023-04-03T01:58:33;13.27;;;7.47;;
21018;SDS011;10667;51.056;3.732;2023-04-03T02:00:59;12.50;;;7.68;;
21018;SDS011;10667;51.056;3.732;2023-04-03T02:03:25;9.98;;;7.07;;
21018;SDS011;10667;51.056;3.732;2023-04-03T02:05:51;10.85;;;7.40;;
21018;SDS011;10667;51.056;3.732;2023-04-03T02:08:17;9.32;;;7.05;;
21018;SDS011;10667;51.056;3.732;2023-04-03T02:10:43;11.73;;;7.25;;
21018;SDS011;10667;51.056;3.732;2023-04-03T02:13:10;10.20;;;6.72;;
21018;SDS011;10667;51.056;3.732;2023-04-03T02:15:37;12.15;;;7.80;;
21018;SDS011;10667;51.056;3.732;2023-04-03T02:18:04;11.15;;;7.55;;
21018;SDS011;10667;51.056;3.732;2023-04-03T02:20:30;11.18;;;7.53;;
21018;SDS011;10667;51.056;3.732;2023-04-03T02:22:56;11.52;;;7.75;;
21018;SDS011;10667;51.056;3.732;2023-04-03T02:25:22;13.45;;;8.55;;
21018;SDS011;10667;51.056;3.732;2023-04-03T02:27:47;11.80;;;7.32;;
21018;SDS011;10667;51.056;3.732;2023-04-03T02:30:13;10.85;;;7.75;;
21018;SDS011;10667;51.056;3.732;2023-04-03T02:32:40;14.45;;;7.55;;
21018;SDS011;10667;51.056;3.732;2023-04-03T02:35:07;12.82;;;8.05;;
21018;SDS011;10667;51.056;3.732;2023-04-03T02:37:33;15.75;;;8.20;;
21018;SDS011;10667;51.056;3.732;2023-04-03T02:39:59;10.73;;;7.82;;
21018;SDS011;10667;51.056;3.732;2023-04-03T02:42:25;11.95;;;7.70;;
21018;SDS011;10667;51.056;3.732;2023-04-03T02:44:51;10.13;;;7.72;;
21018;SDS011;10667;51.056;3.732;2023-04-03T02:47:17;12.77;;;7.88;;
21018;SDS011;10667;51.056;3.732;2023-04-03T02:49:42;8.90;;;6.82;;
21018;SDS011;10667;51.056;3.732;2023-04-03T02:52:12;11.65;;;8.30;;
21018;SDS011;10667;51.056;3.732;2023-04-03T02:54:38;10.63;;;7.72;;
21018;SDS011;10667;51.056;3.732;2023-04-03T02:57:04;14.57;;;7.15;;
21018;SDS011;10667;51.056;3.732;2023-04-03T02:59:30;11.57;;;8.07;;
21018;SDS011;10667;51.056;3.732;2023-04-03T03:01:56;12.23;;;8.00;;
21018;SDS011;10667;51.056;3.732;2023-04-03T03:04:22;9.95;;;7.93;;
21018;SDS011;10667;51.056;3.732;2023-04-03T03:06:47;12.48;;;7.57;;
21018;SDS011;10667;51.056;3.732;2023-04-03T03:09:13;12.10;;;8.30;;
21018;SDS011;10667;51.056;3.732;2023-04-03T03:11:39;11.25;;;7.95;;
21018;SDS011;10667;51.056;3.732;2023-04-03T03:14:05;12.63;;;7.95;;
21018;SDS011;10667;51.056;3.732;2023-04-03T03:16:31;13.50;;;8.27;;
21018;SDS011;10667;51.056;3.732;2023-04-03T03:18:56;8.40;;;7.10;;
21018;SDS011;10667;51.056;3.732;2023-04-03T03:21:22;12.65;;;7.93;;
21018;SDS011;10667;51.056;3.732;2023-04-03T03:23:48;12.30;;;8.02;;
21018;SDS011;10667;51.056;3.732;2023-04-03T03:26:13;11.40;;;8.32;;
21018;SDS011;10667;51.056;3.732;2023-04-03T03:28:39;10.48;;;7.78;;
21018;SDS011;10667;51.056;3.732;2023-04-03T03:31:06;12.85;;;8.00;;
21018;SDS011;10667;51.056;3.732;2023-04-03T03:33:32;12.52;;;8.57;;
21018;SDS011;10667;51.056;3.732;2023-04-03T03:35:59;16.35;;;8.77;;
21018;SDS011;10667;51.056;3.732;2023-04-03T03:38:25;16.17;;;8.55;;
21018;SDS011;10667;51.056;3.732;2023-04-03T03:40:51;14.65;;;8.98;;
21018;SDS011;10667;51.056;3.732;2023-04-03T03:43:17;12.52;;;8.88;;
21018;SDS011;10667;51.056;3.732;2023-04-03T03:45:43;14.00;;;8.93;;
21018;SDS011;10667;51.056;3.732;2023-04-03T03:48:11;17.15;;;9.02;;
21018;SDS011;10667;51.056;3.732;2023-04-03T03:50:37;12.13;;;8.95;;
21018;SDS011;10667;51.056;3.732;2023-04-03T03:53:02;13.20;;;9.15;;
21018;SDS011;10667;51.056;3.732;2023-04-03T03:55:28;15.32;;;8.98;;
21018;SDS011;10667;51.056;3.732;2023-04-03T03:57:54;18.23;;;9.55;;
21018;SDS011;10667;51.056;3.732;2023-04-03T04:00:20;14.85;;;11.02;;
21018;SDS011;10667;51.056;3.732;2023-04-03T04:02:46;11.52;;;9.10;;
21018;SDS011;10667;51.056;3.732;2023-04-03T04:05:11;18.08;;;10.07;;
21018;SDS011;10667;51.056;3.732;2023-04-03T04:07:37;17.23;;;9.65;;
21018;SDS011;10667;51.056;3.732;2023-04-03T04:10:03;13.75;;;10.00;;
21018;SDS011;10667;51.056;3.732;2023-04-03T04:12:29;13.73;;;9.02;;
21018;SDS011;10667;51.056;3.732;2023-04-03T04:14:55;11.40;;;9.55;;
21018;SDS011;10667;51.056;3.732;2023-04-03T04:17:21;17.67;;;9.43;;
21018;SDS011;10667;51.056;3.732;2023-04-03T04:19:46;16.27;;;10.27;;
21018;SDS011;10667;51.056;3.732;2023-04-03T04:22:12;14.80;;;10.25;;
21018;SDS011;10667;51.056;3.732;2023-04-03T04:24:38;13.82;;;9.10;;
21018;SDS011;10667;51.056;3.732;2023-04-03T04:27:03;14.52;;;10.18;;
21018;SDS011;10667;51.056;3.732;2023-04-03T04:29:29;11.68;;;9.20;;
21018;SDS011;10667;51.056;3.732;2023-04-03T04:32:00;17.08;;;10.63;;
21018;SDS011;10667;51.056;3.732;2023-04-03T04:34:26;15.52;;;10.20;;
21018;SDS011;10667;51.056;3.732;2023-04-03T04:36:51;14.13;;;10.20;;
21018;SDS011;10667;51.056;3.732;2023-04-03T04:39:17;17.58;;;11.15;;
21018;SDS011;10667;51.056;3.732;2023-04-03T04:41:43;12.77;;;10.07;;
21018;SDS011;10667;51.056;3.732;2023-04-03T04:44:08;12.60;;;9.63;;
21018;SDS011;10667;51.056;3.732;2023-04-03T04:46:34;14.45;;;10.07;;
21018;SDS011;10667;51.056;3.732;2023-04-03T04:49:00;16.17;;;11.25;;
21018;SDS011;10667;51.056;3.732;2023-04-03T04:51:26;19.00;;;10.07;;
21018;SDS011;10667;51.056;3.732;2023-04-03T04:53:51;13.55;;;9.65;;
21018;SDS011;10667;51.056;3.732;2023-04-03T04:56:17;13.98;;;9.85;;
21018;SDS011;10667;51.056;3.732;2023-04-03T04:58:43;13.52;;;10.32;;
21018;SDS011;10667;51.056;3.732;2023-04-03T05:01:09;15.65;;;10.40;;
21018;SDS011;10667;51.056;3.732;2023-04-03T05:03:35;20.08;;;10.95;;
21018;SDS011;10667;51.056;3.732;2023-04-03T05:06:01;16.60;;;11.40;;
21018;SDS011;10667;51.056;3.732;2023-04-03T05:08:27;18.52;;;10.98;;
21018;SDS011;10667;51.056;3.732;2023-04-03T05:10:53;13.93;;;10.68;;
21018;SDS011;10667;51.056;3.732;2023-04-03T05:13:19;18.25;;;11.50;;
21018;SDS011;10667;51.056;3.732;2023-04-03T05:15:45;18.23;;;12.00;;
21018;SDS011;10667;51.056;3.732;2023-04-03T05:18:11;17.70;;;12.00;;
21018;SDS011;10667;51.056;3.732;2023-04-03T05:20:37;17.05;;;11.52;;
21018;SDS011;10667;51.056;3.732;2023-04-03T05:23:03;18.55;;;12.40;;
21018;SDS011;10667;51.056;3.732;2023-04-03T05:25:29;15.88;;;11.10;;
21018;SDS011;10667;51.056;3.732;2023-04-03T05:27:55;16.50;;;11.73;;
21018;SDS011;10667;51.056;3.732;2023-04-03T05:30:21;19.92;;;12.07;;
21018;SDS011;10667;51.056;3.732;2023-04-03T05:32:47;19.85;;;12.38;;
21018;SDS011;10667;51.056;3.732;2023-04-03T05:35:12;20.95;;;12.23;;
21018;SDS011;10667;51.056;3.732;2023-04-03T05:37:38;22.15;;;13.18;;
21018;SDS011;10667;51.056;3.732;2023-04-03T05:40:05;25.23;;;12.88;;
21018;SDS011;10667;51.056;3.732;2023-04-03T05:42:32;22.20;;;12.95;;
21018;SDS011;10667;51.056;3.732;2023-04-03T05:44:57;19.05;;;12.88;;
21018;SDS011;10667;51.056;3.732;2023-04-03T05:47:24;17.90;;;12.85;;
21018;SDS011;10667;51.056;3.732;2023-04-03T05:49:49;17.85;;;12.40;;
21018;SDS011;10667;51.056;3.732;2023-04-03T05:52:37;20.38;;;12.80;;
21018;SDS011;10667;51.056;3.732;2023-04-03T05:55:03;22.02;;;13.80;;
21018;SDS011;10667;51.056;3.732;2023-04-03T05:57:29;32.17;;;14.70;;
21018;SDS011;10667;51.056;3.732;2023-04-03T05:59:55;26.75;;;13.95;;
21018;SDS011;10667;51.056;3.732;2023-04-03T06:02:21;19.23;;;13.65;;
21018;SDS011;10667;51.056;3.732;2023-04-03T06:04:48;18.92;;;11.52;;
21018;SDS011;10667;51.056;3.732;2023-04-03T06:07:16;21.27;;;12.73;;
21018;SDS011;10667;51.056;3.732;2023-04-03T06:09:47;17.90;;;12.68;;
21018;SDS011;10667;51.056;3.732;2023-04-03T06:12:13;20.15;;;12.48;;
21018;SDS011;10667;51.056;3.732;2023-04-03T06:14:39;16.95;;;12.27;;
21018;SDS011;10667;51.056;3.732;2023-04-03T06:17:05;17.88;;;12.07;;
21018;SDS011;10667;51.056;3.732;2023-04-03T06:19:33;22.48;;;13.48;;
21018;SDS011;10667;51.056;3.732;2023-04-03T06:22:00;26.65;;;12.88;;
21018;SDS011;10667;51.056;3.732;2023-04-03T06:24:25;25.45;;;13.18;;
21018;SDS011;10667;51.056;3.732;2023-04-03T06:26:51;23.05;;;12.40;;
21018;SDS011;10667;51.056;3.732;2023-04-03T06:29:18;21.02;;;13.02;;
21018;SDS011;10667;51.056;3.732;2023-04-03T06:31:45;21.77;;;12.38;;
21018;SDS011;10667;51.056;3.732;2023-04-03T06:34:11;25.67;;;14.10;;
21018;SDS011;10667;51.056;3.732;2023-04-03T06:36:37;21.85;;;12.95;;
21018;SDS011;10667;51.056;3.732;2023-04-03T06:39:03;23.10;;;13.20;;
21018;SDS011;10667;51.056;3.732;2023-04-03T06:41:29;26.88;;;13.52;;
21018;SDS011;10667;51.056;3.732;2023-04-03T06:43:56;24.10;;;13.77;;
21018;SDS011;10667;51.056;3.732;2023-04-03T06:46:23;24.70;;;13.63;;
21018;SDS011;10667;51.056;3.732;2023-04-03T06:48:50;24.20;;;13.20;;
21018;SDS011;10667;51.056;3.732;2023-04-03T06:51:17;19.65;;;13.10;;
21018;SDS011;10667;51.056;3.732;2023-04-03T06:53:44;21.90;;;12.73;;
21018;SDS011;10667;51.056;3.732;2023-04-03T06:56:10;20.52;;;13.02;;
21018;SDS011;10667;51.056;3.732;2023-04-03T06:58:36;14.95;;;12.15;;
21018;SDS011;10667;51.056;3.732;2023-04-03T07:01:02;20.15;;;12.32;;
21018;SDS011;10667;51.056;3.732;2023-04-03T07:03:28;17.42;;;11.48;;
21018;SDS011;10667;51.056;3.732;2023-04-03T07:05:54;24.95;;;12.40;;
21018;SDS011;10667;51.056;3.732;2023-04-03T07:08:20;19.65;;;11.10;;
21018;SDS011;10667;51.056;3.732;2023-04-03T07:10:47;24.83;;;12.40;;
21018;SDS011;10667;51.056;3.732;2023-04-03T07:13:13;22.23;;;11.38;;
21018;SDS011;10667;51.056;3.732;2023-04-03T07:15:39;20.10;;;11.98;;
21018;SDS011;10667;51.056;3.732;2023-04-03T07:18:05;17.02;;;11.07;;
21018;SDS011;10667;51.056;3.732;2023-04-03T07:20:31;16.20;;;10.35;;
21018;SDS011;10667;51.056;3.732;2023-04-03T07:22:56;17.10;;;9.88;;
21018;SDS011;10667;51.056;3.732;2023-04-03T07:25:22;11.30;;;9.57;;
21018;SDS011;10667;51.056;3.732;2023-04-03T07:27:48;15.38;;;9.77;;
21018;SDS011;10667;51.056;3.732;2023-04-03T07:30:14;14.50;;;10.07;;
21018;SDS011;10667;51.056;3.732;2023-04-03T07:32:40;15.13;;;9.98;;
21018;SDS011;10667;51.056;3.732;2023-04-03T07:35:06;20.15;;;10.52;;
21018;SDS011;10667;51.056;3.732;2023-04-03T07:37:32;14.25;;;10.38;;
21018;SDS011;10667;51.056;3.732;2023-04-03T07:39:57;15.57;;;10.43;;
21018;SDS011;10667;51.056;3.732;2023-04-03T07:42:24;14.60;;;9.82;;
21018;SDS011;10667;51.056;3.732;2023-04-03T07:44:52;15.35;;;10.18;;
21018;SDS011;10667;51.056;3.732;2023-04-03T07:47:18;11.98;;;9.00;;
21018;SDS011;10667;51.056;3.732;2023-04-03T07:49:45;14.80;;;9.82;;
21018;SDS011;10667;51.056;3.732;2023-04-03T07:52:11;14.30;;;9.32;;
21018;SDS011;10667;51.056;3.732;2023-04-03T07:54:37;15.02;;;10.05;;
21018;SDS011;10667;51.056;3.732;2023-04-03T07:57:03;13.68;;;9.68;;
21018;SDS011;10667;51.056;3.732;2023-04-03T07:59:29;14.48;;;10.07;;
21018;SDS011;10667;51.056;3.732;2023-04-03T08:01:54;15.32;;;10.20;;
21018;SDS011;10667;51.056;3.732;2023-04-03T08:04:21;22.30;;;10.32;;
21018;SDS011;10667;51.056;3.732;2023-04-03T08:06:46;15.30;;;10.10;;
21018;SDS011;10667;51.056;3.732;2023-04-03T08:09:13;18.50;;;9.80;;
21018;SDS011;10667;51.056;3.732;2023-04-03T08:11:40;15.20;;;11.00;;
21018;SDS011;10667;51.056;3.732;2023-04-03T08:14:06;15.95;;;10.57;;
21018;SDS011;10667;51.056;3.732;2023-04-03T08:16:32;12.02;;;9.55;;
21018;SDS011;10667;51.056;3.732;2023-04-03T08:18:58;14.45;;;10.70;;
21018;SDS011;10667;51.056;3.732;2023-04-03T08:21:24;14.07;;;9.93;;
21018;SDS011;10667;51.056;3.732;2023-04-03T08:23:51;15.30;;;10.70;;
21018;SDS011;10667;51.056;3.732;2023-04-03T08:26:18;14.82;;;11.05;;
21018;SDS011;10667;51.056;3.732;2023-04-03T08:28:46;16.88;;;10.52;;
21018;SDS011;10667;51.056;3.732;2023-04-03T08:31:16;16.98;;;10.10;;
21018;SDS011;10667;51.056;3.732;2023-04-03T08:33:45;15.23;;;10.15;;
21018;SDS011;10667;51.056;3.732;2023-04-03T08:36:18;12.27;;;9.75;;
21018;SDS011;10667;51.056;3.732;2023-04-03T08:38:46;17.33;;;10.80;;
21018;SDS011;10667;51.056;3.732;2023-04-03T08:49:35;17.60;;;9.55;;
21018;SDS011;10667;51.056;3.732;2023-04-03T08:52:09;14.77;;;9.57;;
21018;SDS011;10667;51.056;3.732;2023-04-03T08:54:41;13.55;;;8.82;;
21018;SDS011;10667;51.056;3.732;2023-04-03T08:57:12;10.88;;;8.45;;
21018;SDS011;10667;51.056;3.732;2023-04-03T08:59:38;13.18;;;8.40;;
21018;SDS011;10667;51.056;3.732;2023-04-03T09:02:17;14.25;;;8.43;;
21018;SDS011;10667;51.056;3.732;2023-04-03T09:04:57;13.55;;;7.35;;
21018;SDS011;10667;51.056;3.732;2023-04-03T09:07:30;8.88;;;6.35;;
21018;SDS011;10667;51.056;3.732;2023-04-03T09:10:03;10.30;;;7.15;;
21018;SDS011;10667;51.056;3.732;2023-04-03T09:12:39;13.43;;;6.85;;
21018;SDS011;10667;51.056;3.732;2023-04-03T09:15:18;7.70;;;5.13;;
21018;SDS011;10667;51.056;3.732;2023-04-03T09:23:18;12.63;;;5.03;;
21018;SDS011;10667;51.056;3.732;2023-04-03T09:26:05;8.65;;;5.53;;
21018;SDS011;10667;51.056;3.732;2023-04-03T09:28:41;10.70;;;5.90;;
21018;SDS011;10667;51.056;3.732;2023-04-03T09:31:14;10.57;;;5.40;;
21018;SDS011;10667;51.056;3.732;2023-04-03T09:33:47;8.48;;;5.32;;
21018;SDS011;10667;51.056;3.732;2023-04-03T09:39:14;8.07;;;4.50;;
21018;SDS011;10667;51.056;3.732;2023-04-03T09:41:55;10.38;;;4.88;;
21018;SDS011;10667;51.056;3.732;2023-04-03T09:44:40;7.25;;;4.97;;
21018;SDS011;10667;51.056;3.732;2023-04-03T09:49:48;12.27;;;5.85;;
21018;SDS011;10667;51.056;3.732;2023-04-03T09:52:18;7.75;;;5.03;;
21018;SDS011;10667;51.056;3.732;2023-04-03T09:54:47;15.65;;;5.50;;
21018;SDS011;10667;51.056;3.732;2023-04-03T09:57:13;10.30;;;5.55;;
21018;SDS011;10667;51.056;3.732;2023-04-03T10:00:19;9.85;;;5.63;;
21018;SDS011;10667;51.056;3.732;2023-04-03T10:02:44;11.48;;;5.80;;
21018;SDS011;10667;51.056;3.732;2023-04-03T10:05:34;12.93;;;5.60;;
21018;SDS011;10667;51.056;3.732;2023-04-03T10:08:09;7.53;;;4.70;;
21018;SDS011;10667;51.056;3.732;2023-04-03T10:10:45;7.55;;;4.20;;
21018;SDS011;10667;51.056;3.732;2023-04-03T10:13:13;9.73;;;4.32;;
21018;SDS011;10667;51.056;3.732;2023-04-03T10:15:43;8.70;;;4.47;;
21018;SDS011;10667;51.056;3.732;2023-04-03T10:21:06;8.15;;;5.03;;
21018;SDS011;10667;51.056;3.732;2023-04-03T10:23:50;6.95;;;4.32;;
21018;SDS011;10667;51.056;3.732;2023-04-03T10:26:29;11.23;;;4.35;;
21018;SDS011;10667;51.056;3.732;2023-04-03T10:34:45;8.98;;;5.18;;
21018;SDS011;10667;51.056;3.732;2023-04-03T10:37:23;10.32;;;4.82;;
21018;SDS011;10667;51.056;3.732;2023-04-03T10:39:57;13.50;;;4.78;;
21018;SDS011;10667;51.056;3.732;2023-04-03T10:58:31;4.80;;;3.10;;
21018;SDS011;10667;51.056;3.732;2023-04-03T11:01:06;8.68;;;3.95;;
21018;SDS011;10667;51.056;3.732;2023-04-03T11:03:45;9.68;;;3.78;;
21018;SDS011;10667;51.056;3.732;2023-04-03T11:06:17;8.32;;;3.78;;
21018;SDS011;10667;51.056;3.732;2023-04-03T11:08:49;11.38;;;4.30;;
21018;SDS011;10667;51.056;3.732;2023-04-03T11:11:22;6.45;;;3.40;;
21018;SDS011;10667;51.056;3.732;2023-04-03T11:13:54;8.10;;;3.17;;
21018;SDS011;10667;51.056;3.732;2023-04-03T11:16:29;8.50;;;4.70;;
21018;SDS011;10667;51.056;3.732;2023-04-03T11:19:09;7.07;;;3.88;;
21018;SDS011;10667;51.056;3.732;2023-04-03T11:21:48;12.60;;;4.50;;
21018;SDS011;10667;51.056;3.732;2023-04-03T11:24:24;6.55;;;3.88;;
21018;SDS011;10667;51.056;3.732;2023-04-03T11:26:51;6.70;;;2.95;;
21018;SDS011;10667;51.056;3.732;2023-04-03T11:29:21;6.40;;;3.10;;
21018;SDS011;10667;51.056;3.732;2023-04-03T11:39:57;8.68;;;3.03;;
21018;SDS011;10667;51.056;3.732;2023-04-03T11:45:58;5.90;;;2.42;;
21018;SDS011;10667;51.056;3.732;2023-04-03T11:48:05;3.45;;;2.33;;
21018;SDS011;10667;51.056;3.732;2023-04-03T11:50:51;3.10;;;2.03;;
21018;SDS011;10667;51.056;3.732;2023-04-03T11:56:00;4.00;;;2.20;;
21018;SDS011;10667;51.056;3.732;2023-04-03T11:58:29;6.40;;;2.78;;
21018;SDS011;10667;51.056;3.732;2023-04-03T12:00:59;11.60;;;3.22;;
21018;SDS011;10667;51.056;3.732;2023-04-03T12:13:37;7.18;;;2.55;;
21018;SDS011;10667;51.056;3.732;2023-04-03T12:16:05;6.50;;;2.47;;
21018;SDS011;10667;51.056;3.732;2023-04-03T12:21:08;7.53;;;2.35;;
21018;SDS011;10667;51.056;3.732;2023-04-03T12:23:35;4.30;;;2.80;;
21018;SDS011;10667;51.056;3.732;2023-04-03T12:26:21;11.85;;;3.42;;
21018;SDS011;10667;51.056;3.732;2023-04-03T12:28:51;3.78;;;2.75;;
21018;SDS011;10667;51.056;3.732;2023-04-03T12:31:18;5.22;;;2.88;;
21018;SDS011;10667;51.056;3.732;2023-04-03T12:42:21;13.13;;;4.20;;
21018;SDS011;10667;51.056;3.732;2023-04-03T12:45:20;8.98;;;3.40;;
21018;SDS011;10667;51.056;3.732;2023-04-03T12:47:49;5.85;;;3.50;;
21018;SDS011;10667;51.056;3.732;2023-04-03T12:50:31;6.85;;;3.33;;
21018;SDS011;10667;51.056;3.732;2023-04-03T12:53:11;8.10;;;2.70;;
21018;SDS011;10667;51.056;3.732;2023-04-03T12:55:40;4.18;;;2.80;;
21018;SDS011;10667;51.056;3.732;2023-04-03T12:58:22;5.93;;;3.10;;
21018;SDS011;10667;51.056;3.732;2023-04-03T13:01:03;7.10;;;3.30;;
21018;SDS011;10667;51.056;3.732;2023-04-03T13:03:34;5.38;;;3.22;;
21018;SDS011;10667;51.056;3.732;2023-04-03T13:06:04;12.18;;;4.38;;
21018;SDS011;10667;51.056;3.732;2023-04-03T13:08:31;9.55;;;4.38;;
21018;SDS011;10667;51.056;3.732;2023-04-03T13:11:01;5.35;;;3.08;;
21018;SDS011;10667;51.056;3.732;2023-04-03T13:13:30;6.75;;;2.50;;
21018;SDS011;10667;51.056;3.732;2023-04-03T13:15:56;8.80;;;3.45;;
21018;SDS011;10667;51.056;3.732;2023-04-03T13:18:33;4.25;;;2.75;;
21018;SDS011;10667;51.056;3.732;2023-04-03T13:21:03;8.05;;;3.10;;
21018;SDS011;10667;51.056;3.732;2023-04-03T13:35:45;9.07;;;2.83;;
21018;SDS011;10667;51.056;3.732;2023-04-03T13:40:47;5.10;;;2.58;;
21018;SDS011;10667;51.056;3.732;2023-04-03T13:43:19;7.32;;;3.00;;
21018;SDS011;10667;51.056;3.732;2023-04-03T13:48:23;4.07;;;2.28;;
21018;SDS011;10667;51.056;3.732;2023-04-03T13:53:23;5.78;;;2.22;;
21018;SDS011;10667;51.056;3.732;2023-04-03T13:58:24;3.33;;;2.05;;
21018;SDS011;10667;51.056;3.732;2023-04-03T14:00:55;3.30;;;2.47;;
21018;SDS011;10667;51.056;3.732;2023-04-03T14:03:47;3.65;;;2.50;;
21018;SDS011;10667;51.056;3.732;2023-04-03T14:06:20;3.28;;;2.55;;
21018;SDS011;10667;51.056;3.732;2023-04-03T14:08:47;5.25;;;2.42;;
21018;SDS011;10667;51.056;3.732;2023-04-03T14:11:24;4.95;;;2.20;;
21018;SDS011;10667;51.056;3.732;2023-04-03T14:14:02;3.92;;;2.45;;
21018;SDS011;10667;51.056;3.732;2023-04-03T14:16:37;5.07;;;3.10;;
21018;SDS011;10667;51.056;3.732;2023-04-03T14:19:06;3.65;;;3.03;;
21018;SDS011;10667;51.056;3.732;2023-04-03T14:21:40;4.78;;;2.85;;
21018;SDS011;10667;51.056;3.732;2023-04-03T14:24:06;7.57;;;3.38;;
21018;SDS011;10667;51.056;3.732;2023-04-03T14:26:31;4.43;;;3.13;;
21018;SDS011;10667;51.056;3.732;2023-04-03T14:28:57;4.72;;;2.17;;
21018;SDS011;10667;51.056;3.732;2023-04-03T14:31:23;4.82;;;2.97;;
21018;SDS011;10667;51.056;3.732;2023-04-03T14:33:49;7.30;;;3.05;;
21018;SDS011;10667;51.056;3.732;2023-04-03T14:36:17;10.18;;;3.45;;
21018;SDS011;10667;51.056;3.732;2023-04-03T14:38:48;6.15;;;3.10;;
21018;SDS011;10667;51.056;3.732;2023-04-03T14:41:15;6.00;;;2.75;;
21018;SDS011;10667;51.056;3.732;2023-04-03T14:43:43;6.78;;;2.78;;
21018;SDS011;10667;51.056;3.732;2023-04-03T14:46:20;4.90;;;2.65;;
21018;SDS011;10667;51.056;3.732;2023-04-03T14:48:58;3.90;;;2.60;;
21018;SDS011;10667;51.056;3.732;2023-04-03T14:51:24;8.10;;;2.40;;
21018;SDS011;10667;51.056;3.732;2023-04-03T14:53:50;6.47;;;3.28;;
21018;SDS011;10667;51.056;3.732;2023-04-03T14:56:21;3.65;;;3.08;;
21018;SDS011;10667;51.056;3.732;2023-04-03T14:58:52;3.13;;;2.65;;
21018;SDS011;10667;51.056;3.732;2023-04-03T15:01:21;6.45;;;2.72;;
21018;SDS011;10667;51.056;3.732;2023-04-03T15:03:47;4.15;;;2.40;;
21018;SDS011;10667;51.056;3.732;2023-04-03T15:06:13;9.07;;;2.92;;
21018;SDS011;10667;51.056;3.732;2023-04-03T15:08:39;3.35;;;2.50;;
21018;SDS011;10667;51.056;3.732;2023-04-03T15:11:07;5.80;;;2.85;;
21018;SDS011;10667;51.056;3.732;2023-04-03T15:13:34;4.13;;;3.00;;
21018;SDS011;10667;51.056;3.732;2023-04-03T15:16:00;4.88;;;2.65;;
21018;SDS011;10667;51.056;3.732;2023-04-03T15:18:27;3.72;;;2.50;;
21018;SDS011;10667;51.056;3.732;2023-04-03T15:20:56;7.70;;;3.50;;
21018;SDS011;10667;51.056;3.732;2023-04-03T15:23:21;3.70;;;2.65;;
21018;SDS011;10667;51.056;3.732;2023-04-03T15:25:51;4.25;;;2.75;;
21018;SDS011;10667;51.056;3.732;2023-04-03T15:28:21;8.63;;;3.15;;
21018;SDS011;10667;51.056;3.732;2023-04-03T15:30:47;4.15;;;2.50;;
21018;SDS011;10667;51.056;3.732;2023-04-03T15:33:13;5.22;;;3.00;;
21018;SDS011;10667;51.056;3.732;2023-04-03T15:35:40;5.20;;;2.70;;
21018;SDS011;10667;51.056;3.732;2023-04-03T15:38:06;5.75;;;3.00;;
21018;SDS011;10667;51.056;3.732;2023-04-03T15:40:32;6.30;;;2.58;;
21018;SDS011;10667;51.056;3.732;2023-04-03T15:42:58;3.65;;;2.30;;
21018;SDS011;10667;51.056;3.732;2023-04-03T15:45:23;4.18;;;2.70;;
21018;SDS011;10667;51.056;3.732;2023-04-03T15:47:49;5.22;;;2.63;;
21018;SDS011;10667;51.056;3.732;2023-04-03T15:50:16;8.85;;;2.80;;
21018;SDS011;10667;51.056;3.732;2023-04-03T15:52:42;4.40;;;2.80;;
21018;SDS011;10667;51.056;3.732;2023-04-03T15:55:08;5.45;;;2.75;;
21018;SDS011;10667;51.056;3.732;2023-04-03T15:57:34;4.10;;;3.13;;
21018;SDS011;10667;51.056;3.732;2023-04-03T15:59:59;5.55;;;3.45;;
21018;SDS011;10667;51.056;3.732;2023-04-03T16:02:25;4.40;;;2.80;;
21018;SDS011;10667;51.056;3.732;2023-04-03T16:04:53;7.22;;;3.13;;
21018;SDS011;10667;51.056;3.732;2023-04-03T16:07:20;4.82;;;2.75;;
21018;SDS011;10667;51.056;3.732;2023-04-03T16:09:45;5.55;;;2.40;;
21018;SDS011;10667;51.056;3.732;2023-04-03T16:12:11;4.72;;;2.72;;
21018;SDS011;10667;51.056;3.732;2023-04-03T16:14:37;6.57;;;2.53;;
21018;SDS011;10667;51.056;3.732;2023-04-03T16:17:03;4.32;;;2.45;;
21018;SDS011;10667;51.056;3.732;2023-04-03T16:19:28;9.40;;;3.20;;
21018;SDS011;10667;51.056;3.732;2023-04-03T16:21:55;6.15;;;3.35;;
21018;SDS011;10667;51.056;3.732;2023-04-03T16:24:21;5.78;;;3.50;;
21018;SDS011;10667;51.056;3.732;2023-04-03T16:26:47;5.10;;;2.55;;
21018;SDS011;10667;51.056;3.732;2023-04-03T16:29:13;5.63;;;2.75;;